CheckWX is a tool to help pilots better visualize weather data.  It is not intended as a substitute for an official pre-flight weather briefing.

22:46:03 UTC

KLXV METAR
Lake County Airport
Leadville, Colorado, USA
Current

53 mins ago

KLXV 262153Z AUTO 18011KT 10SM CLR 07/M12 A3024 RMK AO2 SLP198 T00671122
Observed
Mar-26 @ 21:53 UTC
Wind
  • 180° at 11 KTS
Visibility
10 SM
Flight Rules
VFR
Cloud Levels
  • Clear skies
Temperature
C / 45°F
Dewpoint
-12°C / 10°F
Humidity
25%
Altimeter
30.24" Hg
Pressure
1019.8 hPa
Previous

2 hours ago

KLXV 262053Z AUTO 20009KT 10SM CLR 07/M12 A3026 RMK AO2 SLP201 T00671122 56013
Observed
Mar-26 @ 20:53 UTC
Wind
  • 200° at 9 KTS
Visibility
10 SM
Flight Rules
VFR
Cloud Levels
  • Clear skies
Temperature
C / 45°F
Dewpoint
-12°C / 10°F
Humidity
25%
Altimeter
30.26" Hg
Pressure
1020.1 hPa
Previous

3 hours ago

KLXV 261953Z AUTO 18011KT 10SM CLR 06/M12 A3028 RMK AO2 SLP197 T00611117
Observed
Mar-26 @ 19:53 UTC
Wind
  • 180° at 11 KTS
Visibility
10 SM
Flight Rules
VFR
Cloud Levels
  • Clear skies
Temperature
C / 43°F
Dewpoint
-12°C / 10°F
Humidity
26%
Altimeter
30.28" Hg
Pressure
1019.7 hPa